Time;durP1;ratioP1;P1;durP2;ratioP2;P2;SDS_P1;SDS_P2;PMS_P1;PMS_P2;Temp;Humidity;BMP_temperature;BMP_pressure;BME280_temperature;BME280_humidity;BME280_pressure;Samples;Min_cycle;Max_cycle;Signal;HPM_P1;HPM_P2
2020/12/15 00:03:18;;;;;;;29.00;12.10;;;;;;;;;;10560085;28;20226;-72
2020/12/15 00:08:21;;;;;;;21.83;12.03;;;;;;;;;;10558235;28;20597;-71
2020/12/15 00:13:22;;;;;;;24.63;13.23;;;;;;;;;;10563633;28;20211;-72
2020/12/15 00:18:24;;;;;;;23.83;12.53;;;;;;;;;;10552454;28;20199;-72
2020/12/15 00:23:26;;;;;;;23.90;12.83;;;;;;;;;;10562404;28;20241;-71
2020/12/15 00:28:27;;;;;;;24.93;13.67;;;;;;;;;;10557140;28;20211;-72
2020/12/15 00:33:29;;;;;;;25.83;12.20;;;;;;;;;;10558706;28;20319;-73
2020/12/15 00:38:32;;;;;;;26.60;13.87;;;;;;;;;;10560379;28;20207;-72
2020/12/15 00:43:33;;;;;;;29.50;12.57;;;;;;;;;;10562617;28;20883;-71
2020/12/15 00:48:35;;;;;;;23.83;12.57;;;;;;;;;;10565702;28;20200;-72
2020/12/15 00:53:37;;;;;;;26.53;13.00;;;;;;;;;;10559297;28;20728;-72
2020/12/15 00:58:39;;;;;;;26.03;14.20;;;;;;;;;;10554462;28;20337;-73
2020/12/15 01:03:42;;;;;;;38.70;13.97;;;;;;;;;;10556870;28;20226;-72
2020/12/15 01:08:44;;;;;;;28.27;13.47;;;;;;;;;;10553774;28;20200;-72
2020/12/15 01:13:52;;;;;;;25.97;13.50;;;;;;;;;;10569166;28;20219;-73
2020/12/15 01:18:54;;;;;;;27.40;12.33;;;;;;;;;;10556461;28;20206;-70
2020/12/15 01:23:56;;;;;;;23.73;12.63;;;;;;;;;;10547758;28;20574;-71
2020/12/15 01:28:58;;;;;;;23.80;11.90;;;;;;;;;;10561500;28;20209;-71
2020/12/15 01:33:59;;;;;;;23.10;11.97;;;;;;;;;;10551563;28;20222;-69
2020/12/15 01:39:02;;;;;;;23.90;12.07;;;;;;;;;;10550558;28;20195;-72
2020/12/15 01:44:04;;;;;;;23.33;11.87;;;;;;;;;;10554321;28;20225;-71
2020/12/15 01:49:06;;;;;;;23.83;12.03;;;;;;;;;;10563883;28;20203;-72
2020/12/15 01:54:09;;;;;;;24.53;12.13;;;;;;;;;;10561184;28;20215;-72
2020/12/15 01:59:14;;;;;;;22.63;12.23;;;;;;;;;;10562253;28;20203;-72
2020/12/15 02:04:15;;;;;;;24.77;12.73;;;;;;;;;;10556025;28;20229;-72
2020/12/15 02:09:18;;;;;;;22.73;12.37;;;;;;;;;;10548718;28;20199;-72
2020/12/15 02:14:20;;;;;;;24.00;12.67;;;;;;;;;;10558342;28;20302;-73
2020/12/15 02:19:21;;;;;;;22.30;11.43;;;;;;;;;;10552545;28;20200;-71
2020/12/15 02:24:24;;;;;;;24.03;12.63;;;;;;;;;;10550171;28;20245;-72
2020/12/15 02:29:25;;;;;;;22.60;11.90;;;;;;;;;;10556966;28;20191;-72
2020/12/15 02:34:27;;;;;;;21.20;10.93;;;;;;;;;;10566210;28;20619;-72
2020/12/15 02:39:30;;;;;;;20.70;11.67;;;;;;;;;;10555522;28;20227;-72
2020/12/15 02:44:33;;;;;;;20.93;11.80;;;;;;;;;;10548374;28;20225;-72
2020/12/15 02:49:35;;;;;;;22.57;12.47;;;;;;;;;;10555352;28;20195;-71
2020/12/15 02:54:37;;;;;;;21.93;11.83;;;;;;;;;;10555211;28;20233;-71
2020/12/15 02:59:38;;;;;;;18.97;9.77;;;;;;;;;;10547996;28;20199;-70
2020/12/15 03:04:40;;;;;;;20.47;10.70;;;;;;;;;;10559382;28;20595;-70
2020/12/15 03:09:43;;;;;;;18.20;9.43;;;;;;;;;;10550320;28;20279;-71
2020/12/15 03:14:52;;;;;;;17.63;9.43;;;;;;;;;;10553820;28;20646;-72
2020/12/15 03:19:54;;;;;;;19.03;9.93;;;;;;;;;;10548852;28;20709;-72
2020/12/15 03:24:56;;;;;;;17.63;9.77;;;;;;;;;;10551974;28;20670;-71
2020/12/15 03:29:57;;;;;;;18.40;9.83;;;;;;;;;;10553504;28;20242;-72
2020/12/15 03:34:59;;;;;;;18.37;9.43;;;;;;;;;;10551716;28;20581;-71
2020/12/15 03:40:01;;;;;;;16.23;9.00;;;;;;;;;;10552860;28;20230;-71
2020/12/15 03:45:06;;;;;;;18.77;9.50;;;;;;;;;;10544844;28;20219;-71
2020/12/15 03:50:09;;;;;;;17.00;8.60;;;;;;;;;;10560892;28;20223;-71
2020/12/15 03:55:11;;;;;;;13.50;6.80;;;;;;;;;;10544636;28;20575;-72
2020/12/15 04:00:13;;;;;;;16.00;8.97;;;;;;;;;;10551287;28;20222;-69
2020/12/15 04:05:15;;;;;;;14.57;7.43;;;;;;;;;;10556886;28;20641;-70
2020/12/15 04:10:18;;;;;;;13.80;8.13;;;;;;;;;;10552706;28;20223;-72
2020/12/15 04:15:25;;;;;;;15.13;8.07;;;;;;;;;;10561689;28;20282;-74
2020/12/15 04:20:27;;;;;;;9.47;4.37;;;;;;;;;;10549325;28;20211;-73
2020/12/15 04:25:29;;;;;;;12.63;7.50;;;;;;;;;;10558351;28;20287;-73
2020/12/15 04:30:31;;;;;;;13.00;7.17;;;;;;;;;;10546579;28;20659;-73
2020/12/15 04:35:32;;;;;;;11.33;5.87;;;;;;;;;;10564626;28;20574;-73
2020/12/15 04:40:35;;;;;;;10.77;5.80;;;;;;;;;;10563958;28;20225;-74
2020/12/15 04:45:43;;;;;;;11.83;5.97;;;;;;;;;;10558037;28;20723;-70
2020/12/15 04:50:45;;;;;;;12.00;6.10;;;;;;;;;;10555125;28;20540;-72
2020/12/15 04:55:49;;;;;;;6.00;3.20;;;;;;;;;;10548636;28;20212;-71
2020/12/15 05:00:51;;;;;;;12.00;6.40;;;;;;;;;;10561628;28;20258;-71
2020/12/15 05:05:53;;;;;;;11.47;6.17;;;;;;;;;;10557154;28;20219;-71
2020/12/15 05:10:56;;;;;;;10.83;5.50;;;;;;;;;;10556758;28;20554;-72
2020/12/15 05:15:57;;;;;;;9.30;5.17;;;;;;;;;;10561022;28;20206;-71
2020/12/15 05:20:59;;;;;;;9.77;5.07;;;;;;;;;;10554194;28;20223;-72
2020/12/15 05:26:04;;;;;;;8.83;4.10;;;;;;;;;;10560549;28;20216;-71
2020/12/15 05:31:05;;;;;;;10.67;6.40;;;;;;;;;;10555390;28;20705;-71
2020/12/15 05:36:18;;;;;;;9.67;5.47;;;;;;;;;;10559296;28;20244;-72
2020/12/15 05:41:20;;;;;;;9.47;5.50;;;;;;;;;;10554902;28;20226;-72
2020/12/15 05:46:27;;;;;;;9.73;4.90;;;;;;;;;;10554307;28;20635;-70
2020/12/15 05:51:39;;;;;;;9.33;5.17;;;;;;;;;;10547795;28;20237;-72
2020/12/15 05:56:42;;;;;;;9.50;4.70;;;;;;;;;;10572665;28;20211;-71
2020/12/15 06:01:43;;;;;;;9.63;5.00;;;;;;;;;;10551172;28;20235;-72
2020/12/15 06:06:46;;;;;;;11.23;5.40;;;;;;;;;;10542101;28;20239;-72
2020/12/15 06:11:48;;;;;;;9.50;5.30;;;;;;;;;;10559786;28;20571;-72
2020/12/15 06:16:50;;;;;;;11.50;5.47;;;;;;;;;;10560163;28;20554;-72
2020/12/15 06:22:01;;;;;;;8.77;5.13;;;;;;;;;;10555141;28;20250;-71
2020/12/15 06:27:06;;;;;;;11.83;6.57;;;;;;;;;;10555275;28;20665;-72
2020/12/15 06:32:08;;;;;;;11.70;5.57;;;;;;;;;;10557210;28;20230;-70
2020/12/15 06:37:10;;;;;;;9.67;5.40;;;;;;;;;;10549360;28;20195;-72
2020/12/15 06:42:12;;;;;;;12.03;5.60;;;;;;;;;;10558773;28;20792;-72
2020/12/15 06:47:24;;;;;;;11.03;6.03;;;;;;;;;;10548547;28;20649;-71
2020/12/15 06:52:26;;;;;;;11.13;5.80;;;;;;;;;;10538827;28;20285;-71
2020/12/15 06:57:36;;;;;;;10.90;6.00;;;;;;;;;;10555063;28;20293;-70
2020/12/15 07:02:37;;;;;;;10.80;6.20;;;;;;;;;;10551010;28;20227;-71
2020/12/15 07:07:46;;;;;;;12.57;6.27;;;;;;;;;;10558464;28;20221;-72
2020/12/15 07:12:49;;;;;;;10.60;6.17;;;;;;;;;;10561277;28;20223;-72
2020/12/15 07:17:51;;;;;;;10.13;5.80;;;;;;;;;;10540986;28;20294;-71
2020/12/15 07:22:53;;;;;;;11.40;5.87;;;;;;;;;;10546108;28;20231;-71
2020/12/15 07:27:58;;;;;;;12.60;6.60;;;;;;;;;;10553126;28;20267;-71
2020/12/15 07:32:59;;;;;;;11.20;6.37;;;;;;;;;;10557195;28;20213;-71
2020/12/15 07:38:02;;;;;;;12.63;6.80;;;;;;;;;;10550356;28;20203;-71
2020/12/15 07:43:05;;;;;;;11.00;6.33;;;;;;;;;;10561113;28;20219;-71
2020/12/15 07:48:07;;;;;;;12.17;6.37;;;;;;;;;;10561097;28;20199;-71
2020/12/15 07:53:09;;;;;;;13.60;6.70;;;;;;;;;;10561124;28;20223;-71
2020/12/15 07:58:14;;;;;;;11.33;6.13;;;;;;;;;;10564088;28;20566;-71
2020/12/15 08:03:18;;;;;;;10.57;5.93;;;;;;;;;;10561722;28;20233;-71
2020/12/15 08:08:19;;;;;;;10.73;5.80;;;;;;;;;;10568456;28;20199;-71
2020/12/15 08:13:22;;;;;;;10.67;6.07;;;;;;;;;;10554610;28;20695;-71
2020/12/15 08:18:24;;;;;;;10.77;6.10;;;;;;;;;;10561909;28;20286;-71
2020/12/15 08:23:26;;;;;;;12.33;6.70;;;;;;;;;;10554679;28;20234;-71
2020/12/15 08:28:28;;;;;;;13.10;6.93;;;;;;;;;;10565061;28;20626;-70
2020/12/15 08:33:31;;;;;;;12.13;6.40;;;;;;;;;;10551193;28;20579;-70
2020/12/15 08:38:34;;;;;;;13.50;6.23;;;;;;;;;;10561257;28;20659;-71
2020/12/15 08:43:36;;;;;;;12.73;7.10;;;;;;;;;;10561736;28;20219;-70
2020/12/15 08:48:38;;;;;;;12.10;6.80;;;;;;;;;;10559025;28;20203;-72
2020/12/15 08:53:39;;;;;;;11.17;5.93;;;;;;;;;;10563935;28;20214;-71
2020/12/15 08:58:43;;;;;;;11.77;6.30;;;;;;;;;;10559816;28;20199;-71
2020/12/15 09:03:45;;;;;;;10.57;5.53;;;;;;;;;;10565700;28;20245;-71
2020/12/15 09:08:48;;;;;;;12.13;6.27;;;;;;;;;;10558785;28;20199;-71
2020/12/15 09:13:54;;;;;;;11.50;6.20;;;;;;;;;;10556093;28;20226;-71
2020/12/15 09:18:56;;;;;;;10.20;5.90;;;;;;;;;;10546660;28;21602;-71
2020/12/15 09:23:58;;;;;;;10.30;6.20;;;;;;;;;;10557400;28;20232;-70
2020/12/15 09:29:07;;;;;;;10.90;6.17;;;;;;;;;;10555910;28;20213;-70
2020/12/15 09:34:08;;;;;;;11.17;5.87;;;;;;;;;;10556524;28;20310;-71
2020/12/15 09:39:10;;;;;;;11.03;6.40;;;;;;;;;;10558665;28;20543;-70
2020/12/15 09:44:12;;;;;;;12.43;6.07;;;;;;;;;;10547447;28;20228;-70
2020/12/15 09:49:14;;;;;;;12.27;6.00;;;;;;;;;;10552230;28;20199;-70
2020/12/15 09:54:16;;;;;;;10.00;6.23;;;;;;;;;;10552955;28;20218;-71
2020/12/15 09:59:18;;;;;;;10.20;5.83;;;;;;;;;;10561007;28;20562;-71
2020/12/15 10:04:20;;;;;;;9.10;5.60;;;;;;;;;;10560130;28;20238;-70
2020/12/15 10:09:21;;;;;;;10.03;5.83;;;;;;;;;;10556737;28;20203;-72
2020/12/15 10:14:23;;;;;;;10.40;5.60;;;;;;;;;;10556952;28;20214;-71
2020/12/15 10:19:25;;;;;;;10.60;5.90;;;;;;;;;;10541436;28;20200;-71
2020/12/15 10:24:27;;;;;;;10.67;6.27;;;;;;;;;;10556498;28;20306;-71
2020/12/15 10:29:30;;;;;;;9.57;6.13;;;;;;;;;;10559177;28;20199;-70
2020/12/15 10:34:31;;;;;;;9.97;6.70;;;;;;;;;;10553730;28;20206;-70
2020/12/15 10:39:34;;;;;;;11.90;6.93;;;;;;;;;;10546671;28;20210;-70
2020/12/15 10:44:36;;;;;;;10.13;6.43;;;;;;;;;;10565140;28;20260;-70
2020/12/15 10:49:38;;;;;;;11.07;7.50;;;;;;;;;;10555253;28;20204;-70
2020/12/15 10:54:39;;;;;;;11.83;6.70;;;;;;;;;;10556736;28;20215;-69
2020/12/15 10:59:42;;;;;;;10.20;6.93;;;;;;;;;;10546411;28;20199;-70
2020/12/15 11:04:43;;;;;;;10.63;6.70;;;;;;;;;;10547946;28;20238;-72
2020/12/15 11:09:45;;;;;;;12.13;7.17;;;;;;;;;;10545782;28;20566;-71
2020/12/15 11:14:47;;;;;;;13.13;7.20;;;;;;;;;;10561843;28;20578;-71
2020/12/15 11:19:49;;;;;;;10.87;6.77;;;;;;;;;;10551019;28;20219;-71
2020/12/15 11:24:50;;;;;;;13.53;7.03;;;;;;;;;;10547151;28;20216;-71
2020/12/15 11:29:52;;;;;;;12.03;7.33;;;;;;;;;;10551377;28;20688;-70
2020/12/15 11:35:04;;;;;;;10.70;7.13;;;;;;;;;;10544889;28;20666;-71
2020/12/15 11:40:06;;;;;;;14.40;7.60;;;;;;;;;;10545345;28;20233;-71
2020/12/15 11:45:09;;;;;;;13.50;7.90;;;;;;;;;;10549343;28;20234;-71
2020/12/15 11:50:10;;;;;;;11.87;7.80;;;;;;;;;;10540144;28;20310;-71
2020/12/15 11:55:12;;;;;;;14.77;7.50;;;;;;;;;;10555577;28;20233;-72
2020/12/15 12:00:14;;;;;;;11.50;7.20;;;;;;;;;;10548497;28;20732;-70
2020/12/15 12:05:17;;;;;;;15.67;8.07;;;;;;;;;;10543494;28;20587;-72
2020/12/15 12:10:18;;;;;;;15.13;8.60;;;;;;;;;;10537964;28;20705;-72
2020/12/15 12:15:25;;;;;;;15.00;9.53;;;;;;;;;;10546218;28;20257;-71
2020/12/15 12:20:29;;;;;;;15.40;9.47;;;;;;;;;;10548654;28;20220;-71
2020/12/15 12:25:31;;;;;;;15.07;10.03;;;;;;;;;;10552759;28;20229;-71
2020/12/15 12:30:34;;;;;;;16.53;9.77;;;;;;;;;;10556363;28;20227;-70
2020/12/15 12:35:36;;;;;;;18.00;9.83;;;;;;;;;;10552691;28;20240;-71
2020/12/15 12:40:38;;;;;;;15.80;9.57;;;;;;;;;;10550685;28;20219;-71
2020/12/15 12:45:42;;;;;;;15.43;9.40;;;;;;;;;;10552028;28;20230;-70
2020/12/15 12:50:44;;;;;;;16.67;10.40;;;;;;;;;;10558139;28;20559;-70
2020/12/15 12:55:45;;;;;;;16.93;9.97;;;;;;;;;;10566368;28;20834;-71
2020/12/15 13:00:48;;;;;;;16.27;9.43;;;;;;;;;;10569468;28;20727;-71
2020/12/15 13:05:49;;;;;;;17.57;9.63;;;;;;;;;;10563855;28;20226;-72
2020/12/15 13:10:51;;;;;;;15.97;9.97;;;;;;;;;;10559511;28;20317;-71
2020/12/15 13:15:53;;;;;;;17.37;10.00;;;;;;;;;;10565385;28;20195;-71
2020/12/15 13:20:55;;;;;;;15.70;10.00;;;;;;;;;;10555880;28;20306;-71
2020/12/15 13:25:56;;;;;;;17.70;10.23;;;;;;;;;;10553963;28;20265;-71
2020/12/15 13:30:58;;;;;;;17.50;9.90;;;;;;;;;;10564003;28;20222;-71
2020/12/15 13:36:00;;;;;;;17.40;9.40;;;;;;;;;;10554443;28;20199;-71
2020/12/15 13:41:02;;;;;;;18.03;9.87;;;;;;;;;;10568231;28;20215;-70
2020/12/15 13:46:06;;;;;;;17.47;9.57;;;;;;;;;;10558286;28;20226;-73
2020/12/15 13:51:07;;;;;;;17.17;9.53;;;;;;;;;;10550413;28;20317;-71
2020/12/15 13:56:09;;;;;;;15.03;8.77;;;;;;;;;;10554664;28;20579;-71
2020/12/15 14:01:13;;;;;;;19.20;10.33;;;;;;;;;;10553859;28;20318;-71
2020/12/15 14:06:17;;;;;;;16.00;9.23;;;;;;;;;;10547429;28;20218;-71
2020/12/15 14:11:19;;;;;;;16.27;9.50;;;;;;;;;;10562393;28;20888;-71
2020/12/15 14:16:24;;;;;;;16.83;8.23;;;;;;;;;;10557767;28;20851;-70
2020/12/15 14:21:26;;;;;;;18.93;11.17;;;;;;;;;;10556277;28;20223;-70
2020/12/15 14:26:28;;;;;;;18.57;10.53;;;;;;;;;;10558634;28;20226;-70
2020/12/15 14:31:30;;;;;;;19.67;11.10;;;;;;;;;;10546410;28;20223;-72
2020/12/15 14:36:32;;;;;;;18.93;10.43;;;;;;;;;;10554197;28;20282;-70
2020/12/15 14:41:34;;;;;;;16.53;10.27;;;;;;;;;;10555916;28;20251;-70
2020/12/15 14:46:36;;;;;;;17.57;10.57;;;;;;;;;;10561986;28;20215;-71
2020/12/15 14:51:47;;;;;;;18.50;9.83;;;;;;;;;;10559396;28;20815;-72
2020/12/15 14:56:48;;;;;;;15.97;9.63;;;;;;;;;;10553267;28;20520;-71
2020/12/15 15:01:52;;;;;;;17.37;10.20;;;;;;;;;;10553866;28;20219;-70
2020/12/15 15:06:54;;;;;;;17.77;10.13;;;;;;;;;;10548985;28;20231;-72
2020/12/15 15:12:02;;;;;;;16.57;10.20;;;;;;;;;;10552803;28;20219;-71
2020/12/15 15:17:04;;;;;;;17.30;10.10;;;;;;;;;;10553921;28;20198;-72
2020/12/15 15:22:06;;;;;;;17.70;10.60;;;;;;;;;;10549030;28;20224;-72
2020/12/15 15:27:08;;;;;;;19.20;10.50;;;;;;;;;;10560083;28;20223;-72
2020/12/15 15:32:16;;;;;;;20.63;11.23;;;;;;;;;;10560122;28;20247;-74
2020/12/15 15:37:18;;;;;;;17.67;10.97;;;;;;;;;;10564831;28;20203;-72
2020/12/15 15:42:21;;;;;;;16.87;10.63;;;;;;;;;;10549067;28;20227;-70
2020/12/15 15:47:23;;;;;;;18.83;10.27;;;;;;;;;;10563386;28;20223;-71
2020/12/15 15:52:25;;;;;;;19.97;11.33;;;;;;;;;;10544633;28;20596;-72
2020/12/15 15:57:26;;;;;;;21.00;12.47;;;;;;;;;;10538052;28;20195;-70
2020/12/15 16:02:28;;;;;;;21.83;12.07;;;;;;;;;;10546697;28;20230;-71
2020/12/15 16:07:30;;;;;;;22.37;12.97;;;;;;;;;;10538151;28;20247;-70
2020/12/15 16:12:32;;;;;;;18.83;11.50;;;;;;;;;;10556268;28;20728;-71
2020/12/15 16:17:34;;;;;;;19.93;11.77;;;;;;;;;;10547296;28;20678;-71
2020/12/15 16:22:39;;;;;;;20.27;12.33;;;;;;;;;;10546788;28;20288;-72
2020/12/15 16:27:42;;;;;;;20.57;12.60;;;;;;;;;;10564877;28;20666;-71
2020/12/15 16:32:46;;;;;;;17.90;11.50;;;;;;;;;;10567231;28;20222;-71
2020/12/15 16:37:48;;;;;;;19.60;11.00;;;;;;;;;;10567750;28;20186;-71
2020/12/15 16:42:49;;;;;;;21.50;12.27;;;;;;;;;;10565359;28;20685;-72
2020/12/15 16:47:52;;;;;;;20.63;11.80;;;;;;;;;;10567386;28;20223;-72
2020/12/15 16:52:54;;;;;;;19.53;11.57;;;;;;;;;;10547062;28;20219;-73
2020/12/15 16:57:57;;;;;;;18.63;11.03;;;;;;;;;;10561854;28;20218;-72
2020/12/15 17:03:00;;;;;;;20.33;11.80;;;;;;;;;;10544398;28;20210;-72
2020/12/15 17:08:01;;;;;;;20.00;12.00;;;;;;;;;;10559904;28;20206;-71
2020/12/15 17:13:04;;;;;;;21.30;12.13;;;;;;;;;;10553627;28;20222;-71
2020/12/15 17:18:07;;;;;;;18.50;11.67;;;;;;;;;;10555122;28;20294;-72
2020/12/15 17:23:08;;;;;;;19.90;11.60;;;;;;;;;;10557344;28;20303;-71
2020/12/15 17:28:10;;;;;;;23.03;12.70;;;;;;;;;;10555321;28;20199;-72
2020/12/15 17:33:12;;;;;;;19.67;11.90;;;;;;;;;;10559425;28;20326;-72
2020/12/15 17:38:14;;;;;;;20.67;11.73;;;;;;;;;;10559070;28;20667;-72
2020/12/15 17:43:16;;;;;;;21.43;11.73;;;;;;;;;;10556734;28;20226;-70
2020/12/15 17:48:18;;;;;;;23.13;13.40;;;;;;;;;;10554724;28;20214;-70
2020/12/15 17:53:20;;;;;;;21.93;11.73;;;;;;;;;;10557312;28;20230;-70
2020/12/15 17:58:21;;;;;;;19.80;11.83;;;;;;;;;;10553614;28;20686;-72
2020/12/15 18:03:23;;;;;;;17.87;10.83;;;;;;;;;;10549357;28;20682;-71
2020/12/15 18:08:25;;;;;;;20.90;12.17;;;;;;;;;;10553939;28;20202;-71
2020/12/15 18:13:26;;;;;;;19.33;11.87;;;;;;;;;;10553656;28;20260;-71
2020/12/15 18:18:34;;;;;;;21.07;11.27;;;;;;;;;;10557487;28;20254;-72
2020/12/15 18:23:40;;;;;;;19.50;11.37;;;;;;;;;;10551612;28;20229;-72
2020/12/15 18:28:46;;;;;;;20.07;11.97;;;;;;;;;;10555149;28;20196;-71
2020/12/15 18:33:54;;;;;;;20.90;12.77;;;;;;;;;;10549403;28;20226;-71
2020/12/15 18:39:00;;;;;;;20.10;12.07;;;;;;;;;;10552039;28;20226;-71
2020/12/15 18:44:07;;;;;;;22.10;12.60;;;;;;;;;;10556753;28;20229;-71
2020/12/15 18:49:18;;;;;;;19.13;11.60;;;;;;;;;;10546351;28;20198;-71
2020/12/15 18:54:24;;;;;;;18.70;11.17;;;;;;;;;;10556813;28;20272;-72
2020/12/15 18:59:30;;;;;;;21.77;12.80;;;;;;;;;;10550935;28;20645;-71
2020/12/15 19:04:38;;;;;;;22.17;13.07;;;;;;;;;;10545683;28;20224;-72
2020/12/15 19:09:44;;;;;;;25.53;13.90;;;;;;;;;;10552616;28;20214;-72
2020/12/15 19:14:51;;;;;;;24.57;13.33;;;;;;;;;;10553245;28;20290;-72
2020/12/15 19:19:58;;;;;;;23.10;13.30;;;;;;;;;;10548692;28;20724;-71
2020/12/15 19:25:05;;;;;;;22.70;12.77;;;;;;;;;;10549273;28;20766;-73
2020/12/15 19:30:11;;;;;;;22.73;13.40;;;;;;;;;;10558519;28;20215;-71
2020/12/15 19:35:19;;;;;;;22.20;12.83;;;;;;;;;;10556023;28;20195;-72
2020/12/15 19:40:25;;;;;;;21.53;13.23;;;;;;;;;;10547010;28;20231;-72
2020/12/15 19:45:32;;;;;;;25.80;14.60;;;;;;;;;;10546346;28;20350;-71
2020/12/15 19:50:39;;;;;;;22.07;12.87;;;;;;;;;;10554047;28;20222;-71
2020/12/15 19:55:45;;;;;;;23.77;13.73;;;;;;;;;;10552899;28;20210;-71
2020/12/15 20:00:52;;;;;;;24.37;13.47;;;;;;;;;;10558158;28;20534;-71
2020/12/15 20:05:59;;;;;;;23.27;13.97;;;;;;;;;;10557267;28;20297;-72
2020/12/15 20:11:05;;;;;;;24.27;14.20;;;;;;;;;;10564238;28;20211;-73
2020/12/15 20:16:16;;;;;;;23.37;14.57;;;;;;;;;;10560173;28;20209;-72
2020/12/15 20:21:24;;;;;;;25.23;14.83;;;;;;;;;;10567898;28;20279;-73
2020/12/15 20:26:30;;;;;;;24.23;14.77;;;;;;;;;;10561305;28;20224;-71
2020/12/15 20:31:33;;;;;;;22.87;13.93;;;;;;;;;;10561723;28;20300;-73
2020/12/15 20:36:41;;;;;;;23.77;13.93;;;;;;;;;;10556853;28;20274;-71
2020/12/15 20:41:43;;;;;;;23.07;13.90;;;;;;;;;;10557777;28;20225;-73
2020/12/15 20:46:50;;;;;;;22.10;12.57;;;;;;;;;;10559284;28;20302;-72
2020/12/15 20:51:53;;;;;;;19.67;12.20;;;;;;;;;;10550292;28;20541;-73
2020/12/15 20:56:59;;;;;;;15.37;9.70;;;;;;;;;;10554761;28;20211;-72
2020/12/15 21:02:01;;;;;;;14.93;9.17;;;;;;;;;;10550592;28;20218;-72
2020/12/15 21:07:08;;;;;;;14.97;8.00;;;;;;;;;;10561249;28;20238;-72
2020/12/15 21:12:17;;;;;;;16.00;9.23;;;;;;;;;;10550779;28;20229;-73
2020/12/15 21:17:23;;;;;;;12.07;6.73;;;;;;;;;;10545982;28;20250;-73
2020/12/15 21:22:30;;;;;;;14.73;8.10;;;;;;;;;;10541654;28;20695;-73
2020/12/15 21:27:37;;;;;;;13.80;8.40;;;;;;;;;;10560542;28;20215;-72
2020/12/15 21:32:43;;;;;;;14.37;8.07;;;;;;;;;;10561462;28;20293;-72
2020/12/15 21:37:48;;;;;;;14.43;9.13;;;;;;;;;;10548779;28;20697;-72
2020/12/15 21:42:50;;;;;;;15.23;8.17;;;;;;;;;;10536135;28;20314;-72
2020/12/15 21:47:52;;;;;;;14.00;7.67;;;;;;;;;;10563307;28;20718;-73
2020/12/15 21:52:55;;;;;;;13.03;7.77;;;;;;;;;;10552620;28;20231;-72
2020/12/15 21:57:57;;;;;;;13.10;7.60;;;;;;;;;;10557030;28;20222;-73
2020/12/15 22:02:58;;;;;;;15.17;8.10;;;;;;;;;;10556660;28;20586;-73
2020/12/15 22:08:00;;;;;;;12.53;7.60;;;;;;;;;;10560498;28;20575;-73
2020/12/15 22:13:02;;;;;;;13.33;8.13;;;;;;;;;;10560900;28;20611;-73
2020/12/15 22:18:03;;;;;;;12.43;7.60;;;;;;;;;;10559022;28;20200;-71
2020/12/15 22:23:06;;;;;;;16.37;9.47;;;;;;;;;;10554712;28;20223;-72
2020/12/15 22:28:07;;;;;;;14.17;8.17;;;;;;;;;;10558721;28;20211;-72
2020/12/15 22:33:09;;;;;;;15.30;8.37;;;;;;;;;;10558705;28;20279;-72
2020/12/15 22:38:11;;;;;;;13.97;8.27;;;;;;;;;;10554683;28;20647;-72
2020/12/15 22:43:13;;;;;;;12.87;8.10;;;;;;;;;;10556737;28;20230;-71
2020/12/15 22:48:15;;;;;;;13.37;8.37;;;;;;;;;;10553106;28;20769;-72
2020/12/15 22:53:17;;;;;;;13.33;8.87;;;;;;;;;;10555883;28;20238;-73
2020/12/15 22:58:19;;;;;;;15.47;8.63;;;;;;;;;;10553716;28;20519;-73
2020/12/15 23:03:20;;;;;;;13.73;8.23;;;;;;;;;;10558501;28;20572;-72
2020/12/15 23:08:23;;;;;;;14.47;8.87;;;;;;;;;;10556612;28;20227;-72
2020/12/15 23:13:24;;;;;;;14.67;8.67;;;;;;;;;;10557631;28;20718;-73
2020/12/15 23:18:26;;;;;;;13.23;8.30;;;;;;;;;;10544173;28;20203;-73
2020/12/15 23:23:28;;;;;;;15.00;8.57;;;;;;;;;;10545103;28;20230;-72
2020/12/15 23:28:29;;;;;;;16.07;9.53;;;;;;;;;;10541953;28;20685;-73
2020/12/15 23:33:31;;;;;;;15.47;9.60;;;;;;;;;;10547962;28;20215;-73
2020/12/15 23:38:34;;;;;;;15.27;9.93;;;;;;;;;;10547388;28;20202;-73
2020/12/15 23:43:35;;;;;;;17.33;10.47;;;;;;;;;;10548333;28;20218;-73
2020/12/15 23:48:37;;;;;;;18.47;10.07;;;;;;;;;;10550347;28;20234;-74
2020/12/15 23:53:40;;;;;;;14.43;8.93;;;;;;;;;;10547775;28;20226;-73
2020/12/15 23:58:41;;;;;;;16.17;10.37;;;;;;;;;;10553747;28;20233;-74
